15°C
Woerden, The Nederlands
Taal:  Nederlands
Updated01/08/2021 06:40 
 

Nearby METAR Reports

EHAM - Amsterdam/Schiph, Netherlands
Distance from station: N 27km
Updated: 01/08/2021 06:25
Gedeeltelijk bewolkt
Gedeeltelijk bewolkt
 Wind van ZZW
Wind: ZZW 11 km/h
Temperatuur: 16°C
Dauwpunt: 15°C
Vochtigheid: 94%
Barometer: 1007 hPa
Clouds: Gedeeltelijk bewolkt
Visibility: 9 km
Cloud details: Few Clouds 274 m
Few Clouds 457 m
Gedeeltelijk bewolkt 671 m
2021/08/01 04:25 EHAM 010425Z 20006KT 9000 FEW009 FEW015TCU SCT022 16/15 Q1007 TEMPO 6000 SHRA BKN012 SCT018CB
EHRD - Rotterdam Airpor, Netherlands
Distance from station: WZW 30km
Updated: 01/08/2021 06:25
Few Clouds
Few Clouds
 Wind van ZZW
Wind: ZZW 15 km/h
Temperatuur: 16°C
Dauwpunt: 15°C
Vochtigheid: 94%
Barometer: 1008 hPa
Clouds: Few Clouds
Visibility: 9 km
Cloud details: Few Clouds 183 m
2021/08/01 04:25 EHRD 010425Z AUTO 21008KT 9000 FEW006 16/15 Q1008 NOSIG
 
EHGR - Gilze-Rijen Rnla, Netherlands
Distance from station: Z 57km
Updated: 01/08/2021 06:39
Mist, Zwaar bewolkt
Mist, Zwaar bewolkt
 Wind van ZW
Wind: ZW 7 km/h
Temperatuur: 14°C
Dauwpunt: 14°C
Vochtigheid: 100%
Barometer: 1009 hPa
Overzicht: Mist
Clouds: Zwaar bewolkt
Visibility: 2 km
Cloud details: Meestal bewolkt 91 m
Zwaar bewolkt 122 m
2021/08/01 04:39 EHGR 010439Z AUTO 22004KT 190V260 2300 BR BKN003 OVC004 14/14 Q1009 YLO
EHDL - Deelen Rnlafb, Netherlands
Distance from station: O 71km
Updated: 01/08/2021 06:25
Mist, Zwaar bewolkt
Mist, Zwaar bewolkt
 Wind van Z
Wind: Z 7 km/h
Temperatuur: 14°C
Dauwpunt: 14°C
Vochtigheid: 100%
Barometer: 1008 hPa
Overzicht: Mist
Clouds: Zwaar bewolkt
Visibility: 4 km
Cloud details: Few Clouds 2225 m
Zwaar bewolkt 2987 m
2021/08/01 04:25 EHDL 010425Z AUTO 19004KT 120V210 3500 BR FEW073 OVC098 14/14 Q1008 YLO
 
EHVK - Volkel Rnlafb, Netherlands
Distance from station: ZO 77km
Updated: 01/08/2021 06:25
Mist, Zwaar bewolkt
Mist, Zwaar bewolkt
 Wind van ZZW
Wind: ZZW 11 km/h
Temperatuur: 13°C
Dauwpunt: 13°C
Vochtigheid: 100%
Barometer: 1009 hPa
Overzicht: Mist
Clouds: Zwaar bewolkt
Visibility: 7 km
Cloud details: Meestal bewolkt 2530 m
Zwaar bewolkt 2926 m
2021/08/01 04:25 EHVK 010425Z AUTO 21006KT 180V240 7000 BR BKN083 OVC096 13/13 Q1009 WHT
EHWO - Woensdrecht Rnla, Netherlands
Distance from station: ZZW 78km
Updated: 01/08/2021 06:38
Mist, Zwaar bewolkt
Mist, Zwaar bewolkt
 Wind van ZW
Wind: ZW 15 km/h
Temperatuur: 15°C
Dauwpunt: 14°C
Vochtigheid: 94%
Barometer: 1009 hPa
Overzicht: Mist
Clouds: Zwaar bewolkt
Visibility: 3 km
Cloud details: Zwaar bewolkt 91 m
2021/08/01 04:38 EHWO 010438Z AUTO 23008KT 200V270 3000 BR OVC003 15/14 Q1009 YLO
 
EHEH - Eindhoven Rnlafb, Netherlands
Distance from station: ZZO 81km
Updated: 01/08/2021 06:30
Mist, Zwaar bewolkt
Mist, Zwaar bewolkt
 Wind van ZZW
Wind: ZZW 11 km/h
Temperatuur: 14°C
Dauwpunt: 13°C
Vochtigheid: 94%
Barometer: 1009 hPa
Overzicht: Mist
Clouds: Zwaar bewolkt
Visibility: 5 km
Cloud details: Zwaar bewolkt 122 m
2021/08/01 04:30 EHEH 010430Z AUTO 20006KT 4900 BR OVC004 14/13 Q1009 YLO BECMG SCT005 BKN008
EHSC - Goeree Le Sea, Netherlands
Distance from station: W 81km
Updated: 01/08/2021 06:25

 Wind van W
Wind: W 24 km/h
Temperatuur: 18°C
Dauwpunt: 15°C
Vochtigheid: 83%
Barometer: 1008 hPa
Visibility: 10 km
2021/08/01 04:25 EHSC 010425Z AUTO 28013KT 9999 ///////// 18/15 Q1008 W18/H9